createdAt,value
2019-04-25T00:00:46.722Z,2.33
2019-04-25T00:03:16.963Z,2.40
2019-04-25T00:05:45.452Z,2.40
2019-04-25T00:08:13.943Z,2.60
2019-04-25T00:10:43.838Z,2.47
2019-04-25T00:13:31.801Z,2.30
2019-04-25T00:16:01.841Z,2.47
2019-04-25T00:18:31.837Z,2.00
2019-04-25T00:21:13.878Z,2.30
2019-04-25T00:23:44.868Z,2.47
2019-04-25T00:26:21.183Z,2.23
2019-04-25T00:28:49.648Z,2.50
2019-04-25T00:31:22.057Z,2.80
2019-04-25T00:33:52.488Z,2.47
2019-04-25T00:36:21.795Z,2.20
2019-04-25T00:38:52.002Z,2.40
2019-04-25T00:41:21.378Z,2.23
2019-04-25T00:43:51.706Z,2.47
2019-04-25T00:46:20.270Z,2.23
2019-04-25T00:48:51.789Z,2.33
2019-04-25T00:51:22.277Z,2.83
2019-04-25T00:53:53.619Z,2.30
2019-04-25T00:56:22.312Z,2.40
2019-04-25T00:58:55.433Z,2.10
2019-04-25T01:01:43.059Z,1.90
2019-04-25T01:04:12.287Z,1.87
2019-04-25T01:06:41.665Z,2.10
2019-04-25T01:09:12.483Z,1.97
2019-04-25T01:11:42.354Z,2.03
2019-04-25T01:14:15.156Z,2.27
2019-04-25T01:16:44.954Z,1.60
2019-04-25T01:19:13.553Z,1.90
2019-04-25T01:21:41.979Z,1.80
2019-04-25T01:24:10.919Z,1.67
2019-04-25T01:26:39.394Z,1.90
2019-04-25T01:29:08.413Z,2.00
2019-04-25T01:31:37.097Z,2.30
2019-04-25T01:34:07.300Z,2.60
2019-04-25T01:36:40.237Z,2.10
2019-04-25T01:39:14.378Z,2.33
2019-04-25T01:41:44.501Z,2.10
2019-04-25T01:44:17.822Z,2.10
2019-04-25T01:46:49.790Z,2.30
2019-04-25T01:49:18.606Z,2.10
2019-04-25T01:51:47.124Z,2.20
2019-04-25T01:54:18.879Z,2.07
2019-04-25T01:57:07.192Z,2.07
2019-04-25T01:59:35.687Z,2.07
2019-04-25T02:02:06.723Z,2.10
2019-04-25T02:04:35.562Z,1.90
2019-04-25T02:07:05.666Z,1.87
2019-04-25T02:09:34.078Z,1.67
2019-04-25T02:12:04.896Z,2.03
2019-04-25T02:14:33.688Z,1.60
2019-04-25T02:17:02.918Z,1.80
2019-04-25T02:19:34.280Z,1.60
2019-04-25T02:22:03.986Z,1.80
2019-04-25T02:24:33.887Z,2.27
2019-04-25T02:27:04.547Z,1.50
2019-04-25T02:29:33.295Z,1.30
2019-04-25T02:32:05.121Z,1.43
2019-04-25T02:34:34.646Z,1.30
2019-04-25T02:37:07.137Z,1.43
2019-04-25T02:39:36.831Z,1.50
2019-04-25T02:42:06.859Z,1.73
2019-04-25T02:44:35.293Z,1.57
2019-04-25T02:47:08.525Z,1.40
2019-04-25T02:49:48.537Z,1.60
2019-04-25T02:52:18.999Z,1.50
2019-04-25T02:54:50.104Z,1.87
2019-04-25T02:57:20.493Z,1.60
2019-04-25T02:59:48.976Z,1.70
2019-04-25T03:02:17.836Z,2.00
2019-04-25T03:04:49.299Z,2.17
2019-04-25T03:07:19.440Z,1.83
2019-04-25T03:09:51.317Z,1.70
2019-04-25T03:12:30.559Z,2.03
2019-04-25T03:14:50.047Z,1.80
2019-04-25T03:17:21.523Z,2.00
2019-04-25T03:20:01.398Z,2.07
2019-04-25T03:22:34.415Z,2.40
2019-04-25T03:25:06.846Z,2.73
2019-04-25T03:27:34.009Z,3.10
2019-04-25T03:30:04.451Z,4.30
2019-04-25T03:32:35.623Z,3.60
2019-04-25T03:35:05.525Z,3.67
2019-04-25T03:37:35.272Z,4.40
2019-04-25T03:40:06.486Z,4.40
2019-04-25T03:42:35.145Z,3.77
2019-04-25T03:45:05.018Z,4.30
2019-04-25T03:47:34.158Z,4.63
2019-04-25T03:50:05.476Z,4.47
2019-04-25T03:52:53.937Z,5.03
2019-04-25T03:55:23.972Z,4.20
2019-04-25T03:57:53.867Z,4.20
2019-04-25T04:00:24.042Z,4.70
2019-04-25T04:02:53.719Z,4.13
2019-04-25T04:05:23.368Z,4.20
2019-04-25T04:07:53.553Z,4.10
2019-04-25T04:10:23.289Z,3.93
2019-04-25T04:12:51.783Z,3.77
2019-04-25T04:15:20.281Z,4.53
2019-04-25T04:17:53.668Z,4.50
2019-04-25T04:20:29.627Z,4.73
2019-04-25T04:22:59.747Z,5.23
2019-04-25T04:25:28.200Z,5.03
2019-04-25T04:27:56.634Z,5.77
2019-04-25T04:30:25.135Z,5.00
2019-04-25T04:32:53.706Z,5.10
2019-04-25T04:35:23.523Z,5.90
2019-04-25T04:37:52.075Z,5.20
2019-04-25T04:40:20.539Z,4.80
2019-04-25T04:42:48.983Z,4.07
2019-04-25T04:45:20.476Z,4.67
2019-04-25T04:47:48.966Z,4.93
2019-04-25T04:50:20.846Z,6.60
2019-04-25T04:52:49.597Z,5.87
2019-04-25T04:55:20.436Z,5.90
2019-04-25T04:57:49.144Z,5.77
2019-04-25T05:00:18.611Z,6.23
2019-04-25T05:02:57.558Z,5.07
2019-04-25T05:05:37.356Z,6.73
2019-04-25T05:08:19.396Z,7.70
2019-04-25T05:10:50.892Z,5.30
2019-04-25T05:13:19.820Z,5.30
2019-04-25T05:15:48.540Z,5.90
2019-04-25T05:18:32.997Z,5.97
2019-04-25T05:20:47.926Z,5.87
2019-04-25T05:23:19.498Z,5.77
2019-04-25T05:25:50.901Z,4.30
2019-04-25T05:28:24.387Z,5.27
2019-04-25T05:30:56.970Z,4.90
2019-04-25T05:33:25.878Z,4.33
2019-04-25T05:35:54.320Z,4.23
2019-04-25T05:38:24.351Z,4.07
2019-04-25T05:40:54.540Z,3.80
2019-04-25T05:43:24.514Z,3.63
2019-04-25T05:45:54.135Z,2.97
2019-04-25T05:48:24.710Z,3.10
2019-04-25T05:50:53.744Z,2.53
2019-04-25T05:53:24.159Z,2.87
2019-04-25T05:55:54.147Z,2.63
2019-04-25T05:58:24.571Z,2.40
2019-04-25T06:00:54.236Z,2.50
2019-04-25T06:03:24.810Z,2.40
2019-04-25T06:05:53.347Z,2.60
2019-04-25T06:08:44.184Z,2.40
2019-04-25T06:14:03.391Z,2.47
2019-04-25T06:16:33.434Z,2.17
2019-04-25T06:21:58.926Z,3.23
2019-04-25T06:24:28.995Z,3.10
2019-04-25T06:27:18.405Z,3.70
2019-04-25T06:29:58.091Z,4.00
2019-04-25T06:32:23.187Z,3.33
2019-04-25T06:34:52.228Z,3.37
2019-04-25T06:37:21.347Z,3.27
2019-04-25T06:39:50.002Z,3.27
2019-04-25T06:42:21.072Z,3.00
2019-04-25T06:44:51.370Z,3.30
2019-04-25T06:47:30.434Z,3.20
2019-04-25T06:49:58.852Z,3.30
2019-04-25T06:52:30.002Z,3.40
2019-04-25T06:54:57.457Z,3.43
2019-04-25T06:57:26.997Z,3.30
2019-04-25T06:59:56.140Z,3.37
2019-04-25T07:02:25.392Z,3.40
2019-04-25T07:04:54.775Z,3.07
2019-04-25T07:07:25.635Z,6.03
2019-04-25T07:09:53.623Z,3.97
2019-04-25T07:12:24.954Z,3.13
2019-04-25T07:14:53.801Z,3.33
2019-04-25T07:17:24.098Z,3.27
2019-04-25T07:19:54.131Z,3.50
2019-04-25T07:22:23.903Z,3.00
2019-04-25T07:25:13.344Z,3.47
2019-04-25T07:28:24.065Z,3.03
2019-04-25T07:30:54.495Z,2.70
2019-04-25T07:33:28.113Z,3.00
2019-04-25T07:35:57.196Z,2.83
2019-04-25T07:38:25.687Z,3.43
2019-04-25T07:40:54.100Z,2.97
2019-04-25T07:43:23.362Z,2.40
2019-04-25T07:45:53.493Z,2.70
2019-04-25T07:48:23.238Z,2.50
2019-04-25T07:50:53.723Z,2.83
2019-04-25T07:53:24.037Z,2.83
2019-04-25T07:55:54.179Z,2.90
2019-04-25T07:58:34.091Z,2.20
2019-04-25T08:00:53.967Z,2.53
2019-04-25T08:03:23.762Z,2.80
2019-04-25T08:05:53.364Z,2.87
2019-04-25T08:08:41.294Z,3.60
2019-04-25T08:11:10.561Z,1.73
2019-04-25T08:13:56.808Z,2.27
2019-04-25T08:16:26.857Z,1.60
2019-04-25T08:18:55.346Z,1.50
2019-04-25T08:21:24.506Z,1.77
2019-04-25T08:23:53.368Z,1.70
2019-04-25T08:26:22.011Z,1.90
2019-04-25T08:28:55.756Z,3.07
2019-04-25T08:31:23.383Z,3.00
2019-04-25T08:33:56.630Z,3.43
2019-04-25T08:36:25.052Z,3.50
2019-04-25T08:38:53.607Z,3.60
2019-04-25T08:41:41.434Z,3.13
2019-04-25T08:44:09.878Z,3.53
2019-04-25T08:46:39.363Z,2.83
2019-04-25T08:49:09.642Z,2.77
2019-04-25T08:54:25.664Z,2.70
2019-04-25T08:56:55.801Z,3.10
2019-04-25T08:59:44.718Z,2.50
2019-04-25T09:02:13.558Z,2.60
2019-04-25T09:04:47.370Z,3.03
2019-04-25T09:07:15.953Z,3.10
2019-04-25T09:09:45.206Z,3.30
2019-04-25T09:12:14.084Z,2.40
2019-04-25T09:14:44.738Z,2.20
2019-04-25T09:17:14.267Z,2.77
2019-04-25T09:19:44.455Z,3.87
2019-04-25T09:22:13.292Z,2.70
2019-04-25T09:24:42.114Z,3.30
2019-04-25T09:27:10.634Z,3.20
2019-04-25T09:29:39.127Z,2.80
2019-04-25T09:32:26.884Z,3.07
2019-04-25T09:34:55.525Z,2.40
2019-04-25T09:37:24.613Z,2.40
2019-04-25T09:40:00.643Z,2.43
2019-04-25T09:42:29.052Z,2.03
2019-04-25T09:45:07.603Z,2.10
2019-04-25T09:47:37.159Z,2.23
2019-04-25T09:50:08.015Z,2.20
2019-04-25T09:52:37.714Z,2.00
2019-04-25T09:57:55.348Z,1.90
2019-04-25T10:00:33.390Z,1.43
2019-04-25T10:03:02.250Z,2.93
2019-04-25T10:05:50.165Z,2.20
2019-04-25T10:08:21.404Z,3.33
2019-04-25T10:10:49.998Z,2.30
2019-04-25T10:13:20.154Z,2.43
2019-04-25T10:16:00.230Z,2.17
2019-04-25T10:18:28.744Z,2.00
2019-04-25T10:20:57.525Z,2.30
2019-04-25T10:23:26.837Z,2.40
2019-04-25T10:25:55.334Z,2.43
2019-04-25T10:28:25.425Z,2.20
2019-04-25T10:30:55.545Z,1.77
2019-04-25T10:36:14.883Z,1.93
2019-04-25T10:38:46.985Z,2.03
2019-04-25T10:41:14.204Z,2.17
2019-04-25T10:43:43.893Z,2.07
2019-04-25T10:46:34.177Z,2.80
2019-04-25T10:49:04.410Z,2.27
2019-04-25T10:51:34.254Z,3.13
2019-04-25T10:54:04.175Z,1.90
2019-04-25T10:56:33.516Z,1.97
2019-04-25T10:59:04.132Z,2.20
2019-04-25T11:01:33.864Z,1.70
2019-04-25T11:04:04.721Z,1.70
2019-04-25T11:06:33.711Z,1.90
2019-04-25T11:09:03.496Z,1.83
2019-04-25T11:11:52.372Z,2.00
2019-04-25T11:14:20.977Z,3.10
2019-04-25T11:16:53.493Z,1.90
2019-04-25T11:19:23.895Z,2.00
2019-04-25T11:21:53.788Z,1.80
2019-04-25T11:24:23.676Z,1.50
2019-04-25T11:26:54.182Z,1.50
2019-04-25T11:29:24.044Z,1.43
2019-04-25T11:32:13.255Z,1.20
2019-04-25T11:34:43.162Z,0.90
2019-04-25T11:37:14.715Z,1.10
2019-04-25T11:39:47.603Z,1.00
2019-04-25T11:42:16.124Z,1.03
2019-04-25T11:44:45.560Z,1.10
2019-04-25T11:47:20.297Z,0.90
2019-04-25T11:49:49.098Z,1.10
2019-04-25T11:52:27.421Z,1.10
2019-04-25T11:54:49.983Z,1.20
2019-04-25T11:57:18.652Z,0.97
2019-04-25T11:59:49.185Z,0.90
2019-04-25T12:02:20.043Z,1.00
2019-04-25T12:04:49.044Z,0.90
2019-04-25T12:07:17.994Z,0.90
2019-04-25T12:09:46.842Z,1.00
2019-04-25T12:12:16.452Z,1.00
2019-04-25T12:14:46.119Z,1.07
2019-04-25T12:17:14.784Z,1.10
2019-04-25T12:19:43.249Z,1.00
2019-04-25T12:22:13.380Z,0.90
2019-04-25T12:24:43.526Z,0.93
2019-04-25T12:27:12.030Z,0.93
2019-04-25T12:29:40.485Z,1.00
2019-04-25T12:32:08.979Z,0.97
2019-04-25T12:34:37.454Z,1.03
2019-04-25T12:37:06.753Z,0.97
2019-04-25T12:39:35.520Z,1.00
2019-04-25T12:42:04.782Z,1.00
2019-04-25T12:47:13.650Z,0.90
2019-04-25T12:49:56.143Z,1.17
2019-04-25T12:52:24.708Z,1.10
2019-04-25T12:55:13.952Z,1.20
2019-04-25T12:57:42.573Z,1.00
2019-04-25T13:00:14.055Z,1.07
2019-04-25T13:02:42.516Z,1.07
2019-04-25T13:05:11.023Z,1.13
2019-04-25T13:07:39.461Z,1.10
2019-04-25T13:10:08.505Z,1.20
2019-04-25T13:12:36.949Z,1.10
2019-04-25T13:15:06.131Z,1.07
2019-04-25T13:17:34.654Z,1.10
2019-04-25T13:20:05.481Z,1.17
2019-04-25T13:22:34.872Z,1.10
2019-04-25T13:25:05.629Z,1.07
2019-04-25T13:27:51.236Z,1.20
2019-04-25T13:30:24.407Z,1.20
2019-04-25T13:33:16.583Z,1.10
2019-04-25T13:35:46.658Z,1.00
2019-04-25T13:38:15.078Z,1.10
2019-04-25T13:40:43.586Z,1.20
2019-04-25T13:43:12.011Z,1.37
2019-04-25T13:45:40.464Z,1.20
2019-04-25T13:48:09.051Z,1.10
2019-04-25T13:50:37.500Z,1.00
2019-04-25T13:53:05.918Z,1.10
2019-04-25T13:55:34.679Z,1.10
2019-04-25T13:58:04.274Z,1.23
2019-04-25T14:00:34.545Z,1.17
2019-04-25T14:03:03.070Z,1.20
2019-04-25T14:05:31.779Z,0.90
2019-04-25T14:08:00.275Z,1.40
2019-04-25T14:10:28.765Z,1.27
2019-04-25T14:12:57.343Z,1.20
2019-04-25T14:15:26.359Z,1.10
2019-04-25T14:17:56.527Z,1.10
2019-04-25T14:20:26.659Z,1.00
2019-04-25T14:22:55.197Z,1.00
2019-04-25T14:25:26.226Z,1.10
2019-04-25T14:27:54.538Z,1.00
2019-04-25T14:30:25.243Z,1.10
2019-04-25T14:32:54.816Z,0.97
2019-04-25T14:35:24.145Z,0.90
2019-04-25T14:37:53.927Z,1.20
2019-04-25T14:40:22.999Z,1.10
2019-04-25T14:42:52.639Z,1.10
2019-04-25T14:45:24.458Z,1.27
2019-04-25T14:47:53.130Z,1.20
2019-04-25T14:50:21.586Z,1.30
2019-04-25T14:52:50.128Z,1.20
2019-04-25T14:58:13.793Z,0.90
2019-04-25T15:00:43.923Z,0.90
2019-04-25T15:03:12.431Z,0.90
2019-04-25T15:05:43.144Z,1.03
2019-04-25T15:08:11.110Z,1.00
2019-04-25T15:10:39.589Z,1.13
2019-04-25T15:13:08.798Z,1.13
2019-04-25T15:15:37.203Z,1.00
2019-04-25T15:18:05.645Z,1.13
2019-04-25T15:20:34.448Z,1.10
2019-04-25T15:23:02.955Z,1.20
2019-04-25T15:25:31.846Z,1.57
2019-04-25T15:28:00.386Z,1.00
2019-04-25T15:30:30.430Z,1.10
2019-04-25T15:32:58.856Z,1.10
2019-04-25T15:35:32.114Z,1.10
2019-04-25T15:38:14.785Z,1.37
2019-04-25T15:40:50.785Z,1.03
2019-04-25T15:43:23.758Z,1.20
2019-04-25T15:45:53.823Z,0.90
2019-04-25T15:48:22.261Z,1.00
2019-04-25T15:50:51.087Z,1.00
2019-04-25T15:53:19.511Z,0.93
2019-04-25T15:55:48.022Z,0.90
2019-04-25T15:58:16.469Z,1.10
2019-04-25T16:00:44.889Z,1.50
2019-04-25T16:03:13.310Z,1.10
2019-04-25T16:05:41.749Z,1.20
2019-04-25T16:08:10.160Z,1.10
2019-04-25T16:10:38.649Z,1.83
2019-04-25T16:13:07.133Z,1.13
2019-04-25T16:15:36.129Z,0.97
2019-04-25T16:18:05.575Z,1.00
2019-04-25T16:20:34.003Z,1.20
2019-04-25T16:23:02.500Z,0.83
2019-04-25T16:25:31.214Z,0.67
2019-04-25T16:32:03.799Z,1.00
2019-04-25T16:34:32.215Z,1.00
2019-04-25T16:37:01.018Z,0.80
2019-04-25T16:39:48.823Z,0.80
2019-04-25T16:42:17.591Z,0.80
2019-04-25T16:44:46.554Z,0.80
2019-04-25T16:47:17.323Z,0.90
2019-04-25T16:49:47.775Z,0.80
2019-04-25T16:52:17.777Z,0.80
2019-04-25T16:54:49.118Z,0.77
2019-04-25T16:57:20.644Z,0.93
2019-04-25T16:59:49.168Z,1.33
2019-04-25T17:02:19.637Z,1.00
2019-04-25T17:04:48.462Z,0.90
2019-04-25T17:07:18.573Z,0.80
2019-04-25T17:09:47.379Z,0.80
2019-04-25T17:12:17.241Z,0.90
2019-04-25T17:14:59.020Z,0.80
2019-04-25T17:17:41.281Z,0.93
2019-04-25T17:20:14.636Z,0.80
2019-04-25T17:22:43.113Z,0.80
2019-04-25T17:25:12.456Z,0.70
2019-04-25T17:27:41.659Z,0.90
2019-04-25T17:30:12.162Z,0.80
2019-04-25T17:32:58.980Z,1.00
2019-04-25T17:35:29.349Z,1.00
2019-04-25T17:37:59.538Z,0.80
2019-04-25T17:40:49.936Z,0.90
2019-04-25T17:43:20.108Z,0.90
2019-04-25T17:45:51.240Z,0.90
2019-04-25T17:48:19.701Z,1.07
2019-04-25T17:50:48.525Z,0.90
2019-04-25T17:53:17.391Z,1.00
2019-04-25T17:55:47.675Z,1.10
2019-04-25T17:58:36.671Z,0.80
2019-04-25T18:01:05.874Z,0.93
2019-04-25T18:06:36.280Z,1.00
2019-04-25T18:09:07.019Z,1.10
2019-04-25T18:11:36.013Z,1.07
2019-04-25T18:14:05.109Z,1.00
2019-04-25T18:16:38.190Z,1.30
2019-04-25T18:19:17.520Z,1.10
2019-04-25T18:21:45.966Z,1.13
2019-04-25T18:24:32.592Z,1.27
2019-04-25T18:27:05.615Z,1.30
2019-04-25T18:29:35.055Z,1.30
2019-04-25T18:32:04.690Z,1.37
2019-04-25T18:34:37.554Z,1.30
2019-04-25T18:37:19.167Z,1.30
2019-04-25T18:39:54.795Z,1.30
2019-04-25T18:42:33.910Z,1.50
2019-04-25T18:45:02.522Z,1.60
2019-04-25T18:47:30.939Z,1.60
2019-04-25T18:49:59.414Z,1.43
2019-04-25T18:52:45.054Z,1.50
2019-04-25T18:55:31.883Z,1.43
2019-04-25T18:58:07.554Z,1.70
2019-04-25T19:00:37.847Z,1.67
2019-04-25T19:03:22.503Z,1.60
2019-04-25T19:05:48.659Z,1.50
2019-04-25T19:08:17.115Z,1.80
2019-04-25T19:10:45.596Z,1.67
2019-04-25T19:13:14.094Z,1.40
2019-04-25T19:15:43.093Z,1.70
2019-04-25T19:18:11.961Z,1.70
2019-04-25T19:20:40.392Z,1.77
2019-04-25T19:23:08.827Z,1.67
2019-04-25T19:25:37.296Z,1.70
2019-04-25T19:28:05.797Z,1.60
2019-04-25T19:30:34.299Z,1.57
2019-04-25T19:33:02.764Z,1.60
2019-04-25T19:35:31.238Z,1.60
2019-04-25T19:38:01.294Z,1.50
2019-04-25T19:40:34.408Z,1.40
2019-04-25T19:43:07.119Z,2.00
2019-04-25T19:45:35.547Z,1.60
2019-04-25T19:48:04.019Z,1.83
2019-04-25T19:50:32.500Z,1.50
2019-04-25T19:53:00.963Z,1.90
2019-04-25T19:55:29.516Z,1.80
2019-04-25T19:57:57.959Z,1.40
2019-04-25T20:00:26.403Z,1.50
2019-04-25T20:03:02.667Z,1.50
2019-04-25T20:05:48.397Z,1.60
2019-04-25T20:08:27.607Z,1.77
2019-04-25T20:10:58.406Z,1.80
2019-04-25T20:13:27.081Z,1.80
2019-04-25T20:15:55.495Z,1.90
2019-04-25T20:18:23.955Z,1.67
2019-04-25T20:20:52.362Z,1.70
2019-04-25T20:23:20.816Z,1.77
2019-04-25T20:25:49.242Z,1.73
2019-04-25T20:28:17.688Z,1.50
2019-04-25T20:30:47.038Z,1.70
2019-04-25T20:33:15.640Z,1.70
2019-04-25T20:35:44.878Z,1.83
2019-04-25T20:38:14.254Z,1.90
2019-04-25T20:40:42.901Z,1.70
2019-04-25T20:43:11.406Z,1.60
2019-04-25T20:45:40.200Z,1.73
2019-04-25T20:48:08.635Z,1.73
2019-04-25T20:50:37.118Z,1.90
2019-04-25T20:53:05.539Z,1.50
2019-04-25T20:55:34.029Z,1.60
2019-04-25T20:58:02.481Z,1.70
2019-04-25T21:00:43.733Z,1.80
2019-04-25T21:03:12.282Z,2.00
2019-04-25T21:05:40.952Z,2.03
2019-04-25T21:08:09.388Z,1.87
2019-04-25T21:10:37.953Z,1.77
2019-04-25T21:13:08.002Z,1.80
2019-04-25T21:15:52.848Z,1.90
2019-04-25T21:21:21.776Z,2.00
2019-04-25T21:23:50.665Z,1.80
2019-04-25T21:26:19.591Z,1.87
2019-04-25T21:28:48.438Z,1.80
2019-04-25T21:31:17.037Z,1.90
2019-04-25T21:33:45.544Z,2.00
2019-04-25T21:36:14.172Z,2.00
2019-04-25T21:38:43.060Z,2.00
2019-04-25T21:41:17.931Z,2.10
2019-04-25T21:43:48.152Z,1.90
2019-04-25T21:46:18.468Z,2.00
2019-04-25T21:48:54.775Z,1.80
2019-04-25T21:51:32.533Z,2.07
2019-04-25T21:54:03.635Z,1.97
2019-04-25T21:56:32.486Z,1.90
2019-04-25T21:59:01.910Z,2.23
2019-04-25T22:01:35.343Z,1.90
2019-04-25T22:04:05.141Z,2.10
2019-04-25T22:06:35.811Z,2.00
2019-04-25T22:09:07.724Z,2.40
2019-04-25T22:11:36.221Z,1.93
2019-04-25T22:14:05.448Z,2.00
2019-04-25T22:16:36.235Z,2.20
2019-04-25T22:19:06.144Z,2.10
2019-04-25T22:21:38.363Z,2.30
2019-04-25T22:24:11.236Z,2.57
2019-04-25T22:26:35.390Z,2.20
2019-04-25T22:29:05.436Z,2.47
2019-04-25T22:31:35.643Z,2.23
2019-04-25T22:34:11.459Z,2.10
2019-04-25T22:36:40.847Z,2.70
2019-04-25T22:39:13.830Z,2.23
2019-04-25T22:41:46.954Z,2.57
2019-04-25T22:44:16.042Z,2.50
2019-04-25T22:46:44.853Z,2.37
2019-04-25T22:49:13.325Z,2.57
2019-04-25T22:51:41.842Z,2.30
2019-04-25T22:54:13.562Z,2.50
2019-04-25T22:56:42.025Z,2.10
2019-04-25T22:59:11.106Z,2.10
2019-04-25T23:01:56.133Z,2.20
2019-04-25T23:04:32.500Z,2.20
2019-04-25T23:07:02.409Z,2.23
2019-04-25T23:09:32.706Z,2.17
2019-04-25T23:12:02.086Z,2.40
2019-04-25T23:14:30.915Z,2.10
2019-04-25T23:16:59.325Z,2.17
2019-04-25T23:19:27.754Z,2.33
2019-04-25T23:21:56.543Z,2.13
2019-04-25T23:24:26.598Z,2.03
2019-04-25T23:27:06.300Z,1.93
2019-04-25T23:29:35.091Z,2.20
2019-04-25T23:32:04.022Z,2.17
2019-04-25T23:34:32.787Z,2.00
2019-04-25T23:37:01.198Z,2.23
2019-04-25T23:39:29.941Z,2.10
2019-04-25T23:41:58.336Z,2.10
2019-04-25T23:44:26.785Z,2.10
2019-04-25T23:46:55.393Z,1.90
2019-04-25T23:49:23.835Z,2.07
2019-04-25T23:51:52.449Z,1.77
2019-04-25T23:54:20.907Z,1.87
2019-04-25T23:56:49.318Z,2.10
2019-04-25T23:59:17.845Z,2.03
